sensor_id;sensor_type;location;lat;lon;timestamp;P1;durP1;ratioP1;P2;durP2;ratioP2
37205;SDS011;23099;42.636;23.198;2023-05-16T00:01:48;37.67;;;22.17;;
37205;SDS011;23099;42.636;23.198;2023-05-16T00:04:15;32.50;;;21.25;;
37205;SDS011;23099;42.636;23.198;2023-05-16T00:06:41;34.83;;;21.23;;
37205;SDS011;23099;42.636;23.198;2023-05-16T00:09:08;36.40;;;22.08;;
37205;SDS011;23099;42.636;23.198;2023-05-16T00:11:36;32.22;;;20.65;;
37205;SDS011;23099;42.636;23.198;2023-05-16T00:14:03;32.17;;;21.10;;
37205;SDS011;23099;42.636;23.198;2023-05-16T00:16:30;32.53;;;21.13;;
37205;SDS011;23099;42.636;23.198;2023-05-16T00:18:57;36.28;;;20.73;;
37205;SDS011;23099;42.636;23.198;2023-05-16T00:21:23;32.80;;;19.85;;
37205;SDS011;23099;42.636;23.198;2023-05-16T00:23:50;32.28;;;20.20;;
37205;SDS011;23099;42.636;23.198;2023-05-16T00:26:17;32.85;;;21.02;;
37205;SDS011;23099;42.636;23.198;2023-05-16T00:28:46;39.28;;;22.02;;
37205;SDS011;23099;42.636;23.198;2023-05-16T00:33:39;37.58;;;22.67;;
37205;SDS011;23099;42.636;23.198;2023-05-16T00:36:06;36.22;;;21.27;;
37205;SDS011;23099;42.636;23.198;2023-05-16T00:38:33;31.48;;;21.30;;
37205;SDS011;23099;42.636;23.198;2023-05-16T00:41:00;33.63;;;22.27;;
37205;SDS011;23099;42.636;23.198;2023-05-16T00:43:26;34.35;;;22.23;;
37205;SDS011;23099;42.636;23.198;2023-05-16T00:45:54;32.22;;;22.05;;
37205;SDS011;23099;42.636;23.198;2023-05-16T00:48:22;35.55;;;22.98;;
37205;SDS011;23099;42.636;23.198;2023-05-16T00:50:49;37.85;;;22.60;;
37205;SDS011;23099;42.636;23.198;2023-05-16T00:53:16;36.60;;;23.10;;
37205;SDS011;23099;42.636;23.198;2023-05-16T00:55:44;31.57;;;22.33;;
37205;SDS011;23099;42.636;23.198;2023-05-16T00:58:11;35.80;;;25.30;;
37205;SDS011;23099;42.636;23.198;2023-05-16T01:00:38;36.03;;;23.98;;
37205;SDS011;23099;42.636;23.198;2023-05-16T01:03:06;37.88;;;25.88;;
37205;SDS011;23099;42.636;23.198;2023-05-16T01:05:34;38.38;;;26.33;;
37205;SDS011;23099;42.636;23.198;2023-05-16T01:08:01;33.70;;;24.45;;
37205;SDS011;23099;42.636;23.198;2023-05-16T01:10:29;38.63;;;24.20;;
37205;SDS011;23099;42.636;23.198;2023-05-16T01:13:04;37.58;;;24.45;;
37205;SDS011;23099;42.636;23.198;2023-05-16T01:15:38;37.17;;;23.48;;
37205;SDS011;23099;42.636;23.198;2023-05-16T01:18:15;33.67;;;21.40;;
37205;SDS011;23099;42.636;23.198;2023-05-16T01:20:52;32.10;;;22.90;;
37205;SDS011;23099;42.636;23.198;2023-05-16T01:23:33;42.20;;;24.27;;
37205;SDS011;23099;42.636;23.198;2023-05-16T01:26:12;37.72;;;24.13;;
37205;SDS011;23099;42.636;23.198;2023-05-16T01:28:41;34.00;;;22.17;;
37205;SDS011;23099;42.636;23.198;2023-05-16T01:33:36;31.90;;;21.05;;
37205;SDS011;23099;42.636;23.198;2023-05-16T01:36:05;30.73;;;21.67;;
37205;SDS011;23099;42.636;23.198;2023-05-16T01:38:38;31.40;;;21.40;;
37205;SDS011;23099;42.636;23.198;2023-05-16T01:41:14;33.92;;;22.85;;
37205;SDS011;23099;42.636;23.198;2023-05-16T01:43:47;34.47;;;22.92;;
37205;SDS011;23099;42.636;23.198;2023-05-16T01:46:20;30.85;;;21.00;;
37205;SDS011;23099;42.636;23.198;2023-05-16T01:48:50;32.97;;;21.05;;
37205;SDS011;23099;42.636;23.198;2023-05-16T01:51:21;31.50;;;21.38;;
37205;SDS011;23099;42.636;23.198;2023-05-16T01:53:54;36.17;;;22.73;;
37205;SDS011;23099;42.636;23.198;2023-05-16T01:56:27;33.88;;;21.02;;
37205;SDS011;23099;42.636;23.198;2023-05-16T01:58:55;35.78;;;23.00;;
37205;SDS011;23099;42.636;23.198;2023-05-16T02:01:23;32.70;;;21.70;;
37205;SDS011;23099;42.636;23.198;2023-05-16T02:03:50;31.88;;;21.67;;
37205;SDS011;23099;42.636;23.198;2023-05-16T02:06:17;31.98;;;21.35;;
37205;SDS011;23099;42.636;23.198;2023-05-16T02:08:43;31.35;;;22.95;;
37205;SDS011;23099;42.636;23.198;2023-05-16T02:11:10;32.13;;;21.67;;
37205;SDS011;23099;42.636;23.198;2023-05-16T02:13:38;31.17;;;22.08;;
37205;SDS011;23099;42.636;23.198;2023-05-16T02:16:05;27.75;;;20.98;;
37205;SDS011;23099;42.636;23.198;2023-05-16T02:18:32;33.78;;;21.77;;
37205;SDS011;23099;42.636;23.198;2023-05-16T02:20:59;31.20;;;21.77;;
37205;SDS011;23099;42.636;23.198;2023-05-16T02:23:25;33.28;;;21.90;;
37205;SDS011;23099;42.636;23.198;2023-05-16T02:25:52;30.15;;;22.20;;
37205;SDS011;23099;42.636;23.198;2023-05-16T02:28:19;33.65;;;22.67;;
37205;SDS011;23099;42.636;23.198;2023-05-16T02:30:47;30.35;;;22.77;;
37205;SDS011;23099;42.636;23.198;2023-05-16T02:33:21;33.90;;;22.83;;
37205;SDS011;23099;42.636;23.198;2023-05-16T02:35:48;36.08;;;23.98;;
37205;SDS011;23099;42.636;23.198;2023-05-16T02:38:14;31.08;;;21.58;;
37205;SDS011;23099;42.636;23.198;2023-05-16T02:40:41;34.65;;;22.45;;
37205;SDS011;23099;42.636;23.198;2023-05-16T02:43:08;31.70;;;21.98;;
37205;SDS011;23099;42.636;23.198;2023-05-16T02:45:35;30.83;;;22.02;;
37205;SDS011;23099;42.636;23.198;2023-05-16T02:48:03;33.10;;;22.50;;
37205;SDS011;23099;42.636;23.198;2023-05-16T02:52:56;35.58;;;22.38;;
37205;SDS011;23099;42.636;23.198;2023-05-16T02:55:24;33.58;;;24.50;;
37205;SDS011;23099;42.636;23.198;2023-05-16T02:57:50;35.53;;;22.83;;
37205;SDS011;23099;42.636;23.198;2023-05-16T03:00:17;29.83;;;22.83;;
37205;SDS011;23099;42.636;23.198;2023-05-16T03:02:44;39.08;;;22.90;;
37205;SDS011;23099;42.636;23.198;2023-05-16T03:05:12;29.38;;;21.95;;
37205;SDS011;23099;42.636;23.198;2023-05-16T03:07:39;36.00;;;23.33;;
37205;SDS011;23099;42.636;23.198;2023-05-16T03:10:07;32.97;;;23.02;;
37205;SDS011;23099;42.636;23.198;2023-05-16T03:12:34;35.10;;;23.77;;
37205;SDS011;23099;42.636;23.198;2023-05-16T03:15:01;29.50;;;21.17;;
37205;SDS011;23099;42.636;23.198;2023-05-16T03:17:28;31.20;;;21.85;;
37205;SDS011;23099;42.636;23.198;2023-05-16T03:19:54;28.83;;;20.98;;
37205;SDS011;23099;42.636;23.198;2023-05-16T03:22:22;32.08;;;21.52;;
37205;SDS011;23099;42.636;23.198;2023-05-16T03:24:49;38.00;;;22.42;;
37205;SDS011;23099;42.636;23.198;2023-05-16T03:27:16;35.00;;;22.67;;
37205;SDS011;23099;42.636;23.198;2023-05-16T03:29:42;32.20;;;22.35;;
37205;SDS011;23099;42.636;23.198;2023-05-16T03:32:09;32.08;;;21.70;;
37205;SDS011;23099;42.636;23.198;2023-05-16T03:34:36;37.38;;;22.38;;
37205;SDS011;23099;42.636;23.198;2023-05-16T03:37:03;30.15;;;21.05;;
37205;SDS011;23099;42.636;23.198;2023-05-16T03:39:31;28.75;;;20.10;;
37205;SDS011;23099;42.636;23.198;2023-05-16T03:41:58;25.50;;;19.63;;
37205;SDS011;23099;42.636;23.198;2023-05-16T03:44:25;32.50;;;20.67;;
37205;SDS011;23099;42.636;23.198;2023-05-16T03:46:52;30.40;;;20.48;;
37205;SDS011;23099;42.636;23.198;2023-05-16T03:49:22;33.67;;;20.52;;
37205;SDS011;23099;42.636;23.198;2023-05-16T03:51:51;33.80;;;21.50;;
37205;SDS011;23099;42.636;23.198;2023-05-16T03:54:18;29.33;;;19.75;;
37205;SDS011;23099;42.636;23.198;2023-05-16T03:56:46;31.67;;;21.80;;
37205;SDS011;23099;42.636;23.198;2023-05-16T03:59:13;28.10;;;19.75;;
37205;SDS011;23099;42.636;23.198;2023-05-16T04:01:40;27.65;;;19.70;;
37205;SDS011;23099;42.636;23.198;2023-05-16T04:04:06;28.17;;;19.20;;
37205;SDS011;23099;42.636;23.198;2023-05-16T04:06:33;29.33;;;19.83;;
37205;SDS011;23099;42.636;23.198;2023-05-16T04:09:00;28.10;;;19.50;;
37205;SDS011;23099;42.636;23.198;2023-05-16T04:11:26;27.73;;;19.38;;
37205;SDS011;23099;42.636;23.198;2023-05-16T04:13:54;27.55;;;18.80;;
37205;SDS011;23099;42.636;23.198;2023-05-16T04:16:21;31.33;;;19.48;;
37205;SDS011;23099;42.636;23.198;2023-05-16T04:18:48;27.55;;;19.10;;
37205;SDS011;23099;42.636;23.198;2023-05-16T04:21:14;28.88;;;19.23;;
37205;SDS011;23099;42.636;23.198;2023-05-16T04:23:41;32.00;;;20.08;;
37205;SDS011;23099;42.636;23.198;2023-05-16T04:26:08;30.17;;;19.88;;
37205;SDS011;23099;42.636;23.198;2023-05-16T04:28:34;27.45;;;19.30;;
37205;SDS011;23099;42.636;23.198;2023-05-16T04:31:02;26.42;;;18.20;;
37205;SDS011;23099;42.636;23.198;2023-05-16T04:33:29;30.05;;;19.02;;
37205;SDS011;23099;42.636;23.198;2023-05-16T04:35:56;28.55;;;19.00;;
37205;SDS011;23099;42.636;23.198;2023-05-16T04:38:23;28.08;;;19.48;;
37205;SDS011;23099;42.636;23.198;2023-05-16T04:40:50;27.73;;;18.63;;
37205;SDS011;23099;42.636;23.198;2023-05-16T04:43:17;30.10;;;20.25;;
37205;SDS011;23099;42.636;23.198;2023-05-16T04:45:43;27.30;;;18.38;;
37205;SDS011;23099;42.636;23.198;2023-05-16T04:48:12;28.97;;;19.57;;
37205;SDS011;23099;42.636;23.198;2023-05-16T04:50:39;30.38;;;19.13;;
37205;SDS011;23099;42.636;23.198;2023-05-16T04:53:06;27.95;;;17.25;;
37205;SDS011;23099;42.636;23.198;2023-05-16T04:55:33;24.65;;;18.40;;
37205;SDS011;23099;42.636;23.198;2023-05-16T04:57:59;29.35;;;18.60;;
37205;SDS011;23099;42.636;23.198;2023-05-16T05:00:26;25.20;;;18.55;;
37205;SDS011;23099;42.636;23.198;2023-05-16T05:02:53;28.35;;;19.40;;
37205;SDS011;23099;42.636;23.198;2023-05-16T05:05:21;29.48;;;18.67;;
37205;SDS011;23099;42.636;23.198;2023-05-16T05:07:47;28.80;;;16.83;;
37205;SDS011;23099;42.636;23.198;2023-05-16T05:10:14;27.13;;;19.33;;
37205;SDS011;23099;42.636;23.198;2023-05-16T05:12:41;27.65;;;19.13;;
37205;SDS011;23099;42.636;23.198;2023-05-16T05:15:08;29.38;;;19.02;;
37205;SDS011;23099;42.636;23.198;2023-05-16T05:17:34;31.63;;;19.13;;
37205;SDS011;23099;42.636;23.198;2023-05-16T05:20:02;26.77;;;18.15;;
37205;SDS011;23099;42.636;23.198;2023-05-16T05:22:32;29.77;;;19.08;;
37205;SDS011;23099;42.636;23.198;2023-05-16T05:24:59;29.65;;;19.02;;
37205;SDS011;23099;42.636;23.198;2023-05-16T05:27:25;30.60;;;19.23;;
37205;SDS011;23099;42.636;23.198;2023-05-16T05:29:52;26.98;;;19.33;;
37205;SDS011;23099;42.636;23.198;2023-05-16T05:32:19;27.45;;;19.95;;
37205;SDS011;23099;42.636;23.198;2023-05-16T05:34:46;31.35;;;20.10;;
37205;SDS011;23099;42.636;23.198;2023-05-16T05:37:13;26.00;;;18.85;;
37205;SDS011;23099;42.636;23.198;2023-05-16T05:39:41;28.30;;;20.65;;
37205;SDS011;23099;42.636;23.198;2023-05-16T05:42:08;39.08;;;20.13;;
37205;SDS011;23099;42.636;23.198;2023-05-16T05:44:36;28.92;;;20.10;;
37205;SDS011;23099;42.636;23.198;2023-05-16T05:47:02;28.30;;;19.10;;
37205;SDS011;23099;42.636;23.198;2023-05-16T05:49:29;27.85;;;19.52;;
37205;SDS011;23099;42.636;23.198;2023-05-16T05:51:57;30.80;;;20.45;;
37205;SDS011;23099;42.636;23.198;2023-05-16T05:54:23;28.83;;;19.05;;
37205;SDS011;23099;42.636;23.198;2023-05-16T05:56:52;32.35;;;19.17;;
37205;SDS011;23099;42.636;23.198;2023-05-16T05:59:18;31.80;;;18.08;;
37205;SDS011;23099;42.636;23.198;2023-05-16T06:01:45;28.83;;;18.20;;
37205;SDS011;23099;42.636;23.198;2023-05-16T06:04:16;27.10;;;18.42;;
37205;SDS011;23099;42.636;23.198;2023-05-16T06:06:43;24.38;;;17.33;;
37205;SDS011;23099;42.636;23.198;2023-05-16T06:09:10;26.77;;;16.67;;
37205;SDS011;23099;42.636;23.198;2023-05-16T06:11:37;26.42;;;17.75;;
37205;SDS011;23099;42.636;23.198;2023-05-16T06:14:06;30.98;;;17.05;;
37205;SDS011;23099;42.636;23.198;2023-05-16T06:16:32;26.83;;;16.98;;
37205;SDS011;23099;42.636;23.198;2023-05-16T06:18:59;26.50;;;16.38;;
37205;SDS011;23099;42.636;23.198;2023-05-16T06:21:26;28.95;;;17.77;;
37205;SDS011;23099;42.636;23.198;2023-05-16T06:23:53;27.60;;;16.83;;
37205;SDS011;23099;42.636;23.198;2023-05-16T06:26:19;26.95;;;17.70;;
37205;SDS011;23099;42.636;23.198;2023-05-16T06:28:46;28.02;;;17.30;;
37205;SDS011;23099;42.636;23.198;2023-05-16T06:31:14;26.75;;;17.20;;
37205;SDS011;23099;42.636;23.198;2023-05-16T06:33:41;25.33;;;16.58;;
37205;SDS011;23099;42.636;23.198;2023-05-16T06:36:08;24.10;;;16.27;;
37205;SDS011;23099;42.636;23.198;2023-05-16T06:38:35;26.30;;;16.23;;
37205;SDS011;23099;42.636;23.198;2023-05-16T06:41:01;24.30;;;16.13;;
37205;SDS011;23099;42.636;23.198;2023-05-16T06:43:28;24.17;;;15.43;;
37205;SDS011;23099;42.636;23.198;2023-05-16T06:45:55;24.85;;;15.85;;
37205;SDS011;23099;42.636;23.198;2023-05-16T06:48:23;23.75;;;15.50;;
37205;SDS011;23099;42.636;23.198;2023-05-16T06:50:49;26.73;;;15.32;;
37205;SDS011;23099;42.636;23.198;2023-05-16T06:53:16;22.52;;;15.43;;
37205;SDS011;23099;42.636;23.198;2023-05-16T06:55:43;23.15;;;14.50;;
37205;SDS011;23099;42.636;23.198;2023-05-16T06:58:10;25.35;;;14.38;;
37205;SDS011;23099;42.636;23.198;2023-05-16T07:00:37;21.40;;;13.90;;
37205;SDS011;23099;42.636;23.198;2023-05-16T07:03:04;21.65;;;13.23;;
37205;SDS011;23099;42.636;23.198;2023-05-16T07:05:32;23.38;;;12.70;;
37205;SDS011;23099;42.636;23.198;2023-05-16T07:07:58;19.88;;;12.85;;
37205;SDS011;23099;42.636;23.198;2023-05-16T07:10:25;24.52;;;13.55;;
37205;SDS011;23099;42.636;23.198;2023-05-16T07:12:52;24.77;;;13.57;;
37205;SDS011;23099;42.636;23.198;2023-05-16T07:15:19;23.67;;;12.07;;
37205;SDS011;23099;42.636;23.198;2023-05-16T07:17:46;22.95;;;12.52;;
37205;SDS011;23099;42.636;23.198;2023-05-16T07:20:12;21.63;;;12.13;;
37205;SDS011;23099;42.636;23.198;2023-05-16T07:22:41;20.90;;;12.20;;
37205;SDS011;23099;42.636;23.198;2023-05-16T07:25:07;19.77;;;12.52;;
37205;SDS011;23099;42.636;23.198;2023-05-16T07:27:36;19.50;;;12.52;;
37205;SDS011;23099;42.636;23.198;2023-05-16T07:30:07;22.23;;;12.30;;
37205;SDS011;23099;42.636;23.198;2023-05-16T07:32:35;24.08;;;12.52;;
37205;SDS011;23099;42.636;23.198;2023-05-16T07:35:02;21.50;;;12.63;;
37205;SDS011;23099;42.636;23.198;2023-05-16T07:37:29;21.15;;;12.95;;
37205;SDS011;23099;42.636;23.198;2023-05-16T07:39:57;23.10;;;13.90;;
37205;SDS011;23099;42.636;23.198;2023-05-16T07:42:23;21.63;;;13.57;;
37205;SDS011;23099;42.636;23.198;2023-05-16T07:44:50;26.45;;;13.63;;
37205;SDS011;23099;42.636;23.198;2023-05-16T07:47:17;23.27;;;13.00;;
37205;SDS011;23099;42.636;23.198;2023-05-16T07:49:43;19.10;;;12.60;;
37205;SDS011;23099;42.636;23.198;2023-05-16T07:52:10;21.75;;;12.15;;
37205;SDS011;23099;42.636;23.198;2023-05-16T07:54:37;24.83;;;13.10;;
37205;SDS011;23099;42.636;23.198;2023-05-16T07:57:05;24.83;;;12.38;;
37205;SDS011;23099;42.636;23.198;2023-05-16T07:59:32;20.55;;;12.43;;
37205;SDS011;23099;42.636;23.198;2023-05-16T08:01:59;17.25;;;10.70;;
37205;SDS011;23099;42.636;23.198;2023-05-16T08:04:25;28.63;;;13.13;;
37205;SDS011;23099;42.636;23.198;2023-05-16T08:06:52;19.60;;;12.00;;
37205;SDS011;23099;42.636;23.198;2023-05-16T08:09:19;21.77;;;10.43;;
37205;SDS011;23099;42.636;23.198;2023-05-16T08:11:45;20.58;;;10.70;;
37205;SDS011;23099;42.636;23.198;2023-05-16T08:14:13;18.92;;;10.15;;
37205;SDS011;23099;42.636;23.198;2023-05-16T08:16:40;23.83;;;9.95;;
37205;SDS011;23099;42.636;23.198;2023-05-16T08:19:07;15.48;;;8.82;;
37205;SDS011;23099;42.636;23.198;2023-05-16T08:21:34;19.23;;;9.18;;
37205;SDS011;23099;42.636;23.198;2023-05-16T08:24:00;14.13;;;8.52;;
37205;SDS011;23099;42.636;23.198;2023-05-16T08:26:29;15.25;;;7.50;;
37205;SDS011;23099;42.636;23.198;2023-05-16T08:28:56;19.10;;;7.50;;
37205;SDS011;23099;42.636;23.198;2023-05-16T08:31:24;18.25;;;7.85;;
37205;SDS011;23099;42.636;23.198;2023-05-16T08:33:50;13.27;;;7.47;;
37205;SDS011;23099;42.636;23.198;2023-05-16T08:36:17;22.13;;;8.25;;
37205;SDS011;23099;42.636;23.198;2023-05-16T08:38:44;17.63;;;7.38;;
37205;SDS011;23099;42.636;23.198;2023-05-16T08:41:11;17.42;;;6.90;;
37205;SDS011;23099;42.636;23.198;2023-05-16T08:43:37;13.23;;;6.72;;
37205;SDS011;23099;42.636;23.198;2023-05-16T08:46:05;17.45;;;6.78;;
37205;SDS011;23099;42.636;23.198;2023-05-16T08:48:33;15.63;;;7.00;;
37205;SDS011;23099;42.636;23.198;2023-05-16T08:51:04;15.23;;;7.20;;
37205;SDS011;23099;42.636;23.198;2023-05-16T08:53:35;16.35;;;7.20;;
37205;SDS011;23099;42.636;23.198;2023-05-16T08:56:06;15.85;;;7.03;;
37205;SDS011;23099;42.636;23.198;2023-05-16T08:58:34;27.77;;;7.75;;
37205;SDS011;23099;42.636;23.198;2023-05-16T09:01:02;19.42;;;7.80;;
37205;SDS011;23099;42.636;23.198;2023-05-16T09:03:34;19.55;;;9.00;;
37205;SDS011;23099;42.636;23.198;2023-05-16T09:06:02;17.52;;;8.40;;
37205;SDS011;23099;42.636;23.198;2023-05-16T09:08:30;19.77;;;7.97;;
37205;SDS011;23099;42.636;23.198;2023-05-16T09:10:57;15.48;;;7.82;;
37205;SDS011;23099;42.636;23.198;2023-05-16T09:13:24;15.95;;;7.43;;
37205;SDS011;23099;42.636;23.198;2023-05-16T09:18:41;18.85;;;7.90;;
37205;SDS011;23099;42.636;23.198;2023-05-16T09:21:10;19.08;;;7.82;;
37205;SDS011;23099;42.636;23.198;2023-05-16T09:23:37;17.73;;;8.50;;
37205;SDS011;23099;42.636;23.198;2023-05-16T09:26:04;23.92;;;7.95;;
37205;SDS011;23099;42.636;23.198;2023-05-16T09:28:32;20.80;;;7.95;;
37205;SDS011;23099;42.636;23.198;2023-05-16T09:30:58;19.02;;;8.40;;
37205;SDS011;23099;42.636;23.198;2023-05-16T09:33:26;18.07;;;7.87;;
37205;SDS011;23099;42.636;23.198;2023-05-16T09:35:55;19.80;;;8.65;;
37205;SDS011;23099;42.636;23.198;2023-05-16T09:38:23;16.75;;;8.38;;
37205;SDS011;23099;42.636;23.198;2023-05-16T09:40:50;15.15;;;8.68;;
37205;SDS011;23099;42.636;23.198;2023-05-16T09:43:18;21.35;;;8.77;;
37205;SDS011;23099;42.636;23.198;2023-05-16T09:45:48;17.60;;;8.93;;
37205;SDS011;23099;42.636;23.198;2023-05-16T09:48:15;19.00;;;9.20;;
37205;SDS011;23099;42.636;23.198;2023-05-16T09:50:45;15.75;;;8.10;;
37205;SDS011;23099;42.636;23.198;2023-05-16T09:53:15;15.63;;;8.82;;
37205;SDS011;23099;42.636;23.198;2023-05-16T09:55:41;17.40;;;9.15;;
37205;SDS011;23099;42.636;23.198;2023-05-16T09:58:08;17.77;;;8.05;;
37205;SDS011;23099;42.636;23.198;2023-05-16T10:00:35;19.60;;;9.20;;
37205;SDS011;23099;42.636;23.198;2023-05-16T10:03:02;20.45;;;8.65;;
37205;SDS011;23099;42.636;23.198;2023-05-16T10:05:29;22.40;;;9.13;;
37205;SDS011;23099;42.636;23.198;2023-05-16T10:07:56;18.43;;;8.73;;
37205;SDS011;23099;42.636;23.198;2023-05-16T10:10:25;16.98;;;9.00;;
37205;SDS011;23099;42.636;23.198;2023-05-16T10:12:52;21.13;;;9.43;;
37205;SDS011;23099;42.636;23.198;2023-05-16T10:15:25;21.20;;;9.02;;
37205;SDS011;23099;42.636;23.198;2023-05-16T10:17:53;19.42;;;8.52;;
37205;SDS011;23099;42.636;23.198;2023-05-16T10:20:22;15.73;;;7.70;;
37205;SDS011;23099;42.636;23.198;2023-05-16T10:22:50;18.52;;;8.20;;
37205;SDS011;23099;42.636;23.198;2023-05-16T10:25:22;16.48;;;7.45;;
37205;SDS011;23099;42.636;23.198;2023-05-16T10:27:54;21.40;;;9.18;;
37205;SDS011;23099;42.636;23.198;2023-05-16T10:30:22;21.58;;;8.75;;
37205;SDS011;23099;42.636;23.198;2023-05-16T10:32:49;20.23;;;8.13;;
37205;SDS011;23099;42.636;23.198;2023-05-16T10:37:44;14.20;;;7.75;;
37205;SDS011;23099;42.636;23.198;2023-05-16T10:40:12;18.42;;;7.82;;
37205;SDS011;23099;42.636;23.198;2023-05-16T10:42:46;17.83;;;7.72;;
37205;SDS011;23099;42.636;23.198;2023-05-16T10:45:21;17.02;;;7.38;;
37205;SDS011;23099;42.636;23.198;2023-05-16T10:47:51;20.38;;;6.88;;
37205;SDS011;23099;42.636;23.198;2023-05-16T10:50:35;13.85;;;6.90;;
37205;SDS011;23099;42.636;23.198;2023-05-16T10:53:12;17.48;;;6.88;;
37205;SDS011;23099;42.636;23.198;2023-05-16T10:55:48;16.42;;;6.85;;
37205;SDS011;23099;42.636;23.198;2023-05-16T10:58:39;15.55;;;7.32;;
37205;SDS011;23099;42.636;23.198;2023-05-16T11:01:13;15.95;;;6.03;;
37205;SDS011;23099;42.636;23.198;2023-05-16T11:06:26;17.75;;;7.13;;
37205;SDS011;23099;42.636;23.198;2023-05-16T11:08:57;21.90;;;6.75;;
37205;SDS011;23099;42.636;23.198;2023-05-16T11:11:39;14.13;;;7.07;;
37205;SDS011;23099;42.636;23.198;2023-05-16T11:14:08;17.58;;;6.85;;
37205;SDS011;23099;42.636;23.198;2023-05-16T11:16:44;14.82;;;6.40;;
37205;SDS011;23099;42.636;23.198;2023-05-16T11:19:18;13.55;;;6.95;;
37205;SDS011;23099;42.636;23.198;2023-05-16T11:24:49;14.48;;;6.68;;
37205;SDS011;23099;42.636;23.198;2023-05-16T11:27:21;15.25;;;7.07;;
37205;SDS011;23099;42.636;23.198;2023-05-16T11:29:51;14.55;;;6.55;;
37205;SDS011;23099;42.636;23.198;2023-05-16T11:32:19;16.00;;;7.25;;
37205;SDS011;23099;42.636;23.198;2023-05-16T11:34:47;13.85;;;6.75;;
37205;SDS011;23099;42.636;23.198;2023-05-16T11:37:14;16.95;;;7.18;;
37205;SDS011;23099;42.636;23.198;2023-05-16T11:39:41;15.90;;;7.22;;
37205;SDS011;23099;42.636;23.198;2023-05-16T11:42:08;17.33;;;7.50;;
37205;SDS011;23099;42.636;23.198;2023-05-16T11:44:34;14.15;;;7.53;;
37205;SDS011;23099;42.636;23.198;2023-05-16T11:47:03;15.75;;;7.45;;
37205;SDS011;23099;42.636;23.198;2023-05-16T11:49:31;14.13;;;8.00;;
37205;SDS011;23099;42.636;23.198;2023-05-16T11:51:59;19.55;;;8.30;;
37205;SDS011;23099;42.636;23.198;2023-05-16T11:54:26;14.50;;;8.80;;
37205;SDS011;23099;42.636;23.198;2023-05-16T11:56:53;16.65;;;8.75;;
37205;SDS011;23099;42.636;23.198;2023-05-16T11:59:20;17.20;;;8.75;;
37205;SDS011;23099;42.636;23.198;2023-05-16T12:01:47;18.90;;;9.68;;
37205;SDS011;23099;42.636;23.198;2023-05-16T12:04:16;15.67;;;9.40;;
37205;SDS011;23099;42.636;23.198;2023-05-16T12:06:49;18.67;;;9.00;;
37205;SDS011;23099;42.636;23.198;2023-05-16T12:09:24;22.13;;;8.55;;
37205;SDS011;23099;42.636;23.198;2023-05-16T12:11:51;18.15;;;8.57;;
37205;SDS011;23099;42.636;23.198;2023-05-16T12:14:18;16.05;;;9.15;;
37205;SDS011;23099;42.636;23.198;2023-05-16T12:16:45;15.80;;;8.13;;
37205;SDS011;23099;42.636;23.198;2023-05-16T12:19:13;15.85;;;7.53;;
37205;SDS011;23099;42.636;23.198;2023-05-16T12:21:42;15.30;;;8.47;;
37205;SDS011;23099;42.636;23.198;2023-05-16T12:24:09;19.90;;;8.43;;
37205;SDS011;23099;42.636;23.198;2023-05-16T12:26:38;18.67;;;7.72;;
37205;SDS011;23099;42.636;23.198;2023-05-16T12:29:06;19.08;;;8.40;;
37205;SDS011;23099;42.636;23.198;2023-05-16T12:31:35;14.07;;;8.20;;
37205;SDS011;23099;42.636;23.198;2023-05-16T12:36:31;14.68;;;8.10;;
37205;SDS011;23099;42.636;23.198;2023-05-16T12:39:00;23.50;;;10.23;;
37205;SDS011;23099;42.636;23.198;2023-05-16T12:41:28;19.48;;;9.85;;
37205;SDS011;23099;42.636;23.198;2023-05-16T12:46:31;27.67;;;11.75;;
37205;SDS011;23099;42.636;23.198;2023-05-16T12:49:00;19.05;;;9.05;;
37205;SDS011;23099;42.636;23.198;2023-05-16T12:51:29;23.30;;;9.07;;
37205;SDS011;23099;42.636;23.198;2023-05-16T12:53:56;17.80;;;9.30;;
37205;SDS011;23099;42.636;23.198;2023-05-16T12:56:24;24.90;;;9.65;;
37205;SDS011;23099;42.636;23.198;2023-05-16T12:58:52;19.92;;;8.70;;
37205;SDS011;23099;42.636;23.198;2023-05-16T13:01:18;18.85;;;10.20;;
37205;SDS011;23099;42.636;23.198;2023-05-16T13:03:45;15.60;;;8.55;;
37205;SDS011;23099;42.636;23.198;2023-05-16T13:06:11;17.17;;;9.27;;
37205;SDS011;23099;42.636;23.198;2023-05-16T13:08:38;17.73;;;9.70;;
37205;SDS011;23099;42.636;23.198;2023-05-16T13:11:05;19.50;;;9.98;;
37205;SDS011;23099;42.636;23.198;2023-05-16T13:13:33;18.70;;;9.77;;
37205;SDS011;23099;42.636;23.198;2023-05-16T13:16:00;20.17;;;10.32;;
37205;SDS011;23099;42.636;23.198;2023-05-16T13:18:27;21.58;;;10.88;;
37205;SDS011;23099;42.636;23.198;2023-05-16T13:20:53;23.25;;;10.85;;
37205;SDS011;23099;42.636;23.198;2023-05-16T13:23:20;19.83;;;10.90;;
37205;SDS011;23099;42.636;23.198;2023-05-16T13:25:47;17.80;;;9.77;;
37205;SDS011;23099;42.636;23.198;2023-05-16T13:28:14;23.15;;;10.80;;
37205;SDS011;23099;42.636;23.198;2023-05-16T13:30:42;20.85;;;10.13;;
37205;SDS011;23099;42.636;23.198;2023-05-16T13:33:08;22.33;;;10.52;;
37205;SDS011;23099;42.636;23.198;2023-05-16T13:35:35;16.27;;;9.55;;
37205;SDS011;23099;42.636;23.198;2023-05-16T13:38:02;17.23;;;10.45;;
37205;SDS011;23099;42.636;23.198;2023-05-16T13:40:29;21.33;;;10.90;;
37205;SDS011;23099;42.636;23.198;2023-05-16T13:42:56;17.45;;;9.93;;
37205;SDS011;23099;42.636;23.198;2023-05-16T13:45:25;23.80;;;10.15;;
37205;SDS011;23099;42.636;23.198;2023-05-16T13:47:53;19.65;;;10.20;;
37205;SDS011;23099;42.636;23.198;2023-05-16T13:50:19;28.23;;;14.20;;
37205;SDS011;23099;42.636;23.198;2023-05-16T13:52:46;32.97;;;16.77;;
37205;SDS011;23099;42.636;23.198;2023-05-16T13:55:13;29.58;;;17.10;;
37205;SDS011;23099;42.636;23.198;2023-05-16T13:57:39;25.40;;;16.58;;
37205;SDS011;23099;42.636;23.198;2023-05-16T14:00:06;31.10;;;17.00;;
37205;SDS011;23099;42.636;23.198;2023-05-16T14:02:36;33.25;;;19.63;;
37205;SDS011;23099;42.636;23.198;2023-05-16T14:05:05;35.60;;;18.73;;
37205;SDS011;23099;42.636;23.198;2023-05-16T14:07:33;33.83;;;20.52;;
37205;SDS011;23099;42.636;23.198;2023-05-16T14:10:00;36.05;;;20.80;;
37205;SDS011;23099;42.636;23.198;2023-05-16T14:12:28;38.42;;;22.67;;
37205;SDS011;23099;42.636;23.198;2023-05-16T14:14:55;35.20;;;21.73;;
37205;SDS011;23099;42.636;23.198;2023-05-16T14:17:21;38.80;;;23.23;;
37205;SDS011;23099;42.636;23.198;2023-05-16T14:19:48;41.38;;;24.02;;
37205;SDS011;23099;42.636;23.198;2023-05-16T14:22:16;43.65;;;26.27;;
37205;SDS011;23099;42.636;23.198;2023-05-16T14:24:43;43.38;;;27.50;;
37205;SDS011;23099;42.636;23.198;2023-05-16T14:27:10;48.35;;;28.42;;
37205;SDS011;23099;42.636;23.198;2023-05-16T14:29:39;38.88;;;23.90;;
37205;SDS011;23099;42.636;23.198;2023-05-16T14:32:06;32.42;;;17.00;;
37205;SDS011;23099;42.636;23.198;2023-05-16T14:34:34;27.02;;;11.35;;
37205;SDS011;23099;42.636;23.198;2023-05-16T14:37:01;28.90;;;11.00;;
37205;SDS011;23099;42.636;23.198;2023-05-16T14:39:29;25.33;;;12.40;;
37205;SDS011;23099;42.636;23.198;2023-05-16T14:41:56;25.40;;;10.25;;